Time;durP1;ratioP1;P1;durP2;ratioP2;P2;SDS_P1;SDS_P2;PMS_P1;PMS_P2;Temp;Humidity;BMP_temperature;BMP_pressure;BME280_temperature;BME280_humidity;BME280_pressure;Samples;Min_cycle;Max_cycle;Signal;HPM_P1;HPM_P2
2022/05/20 00:01:09;;;;;;;;;;;17.00;99.90;;;;;;5083277;28;19978;-81
2022/05/20 00:03:35;;;;;;;;;;;17.00;99.90;;;;;;5093674;28;19982;-80
2022/05/20 00:06:01;;;;;;;;;;;17.00;99.90;;;;;;5096980;28;19908;-81
2022/05/20 00:08:27;;;;;;;;;;;17.00;99.90;;;;;;5090295;28;20340;-81
2022/05/20 00:10:53;;;;;;;;;;;17.10;99.90;;;;;;5084583;28;20379;-81
2022/05/20 00:13:23;;;;;;;;;;;17.10;99.90;;;;;;5094138;28;19908;-81
2022/05/20 00:15:49;;;;;;;;;;;17.10;99.90;;;;;;5095086;28;19952;-80
2022/05/20 00:18:15;;;;;;;;;;;17.10;99.90;;;;;;5095988;28;19935;-80
2022/05/20 00:20:40;;;;;;;;;;;17.10;99.90;;;;;;5094416;28;19959;-80
2022/05/20 00:23:06;;;;;;;;;;;17.00;99.90;;;;;;5089229;28;19916;-80
2022/05/20 00:25:47;;;;;;;;;;;17.00;99.90;;;;;;5094399;28;20340;-80
2022/05/20 00:28:19;;;;;;;;;;;16.90;99.90;;;;;;5095552;28;19960;-80
2022/05/20 00:30:46;;;;;;;;;;;16.80;99.90;;;;;;5096098;28;19915;-80
2022/05/20 00:33:13;;;;;;;;;;;16.70;99.90;;;;;;5082843;28;19924;-80
2022/05/20 00:35:38;;;;;;;;;;;16.70;99.90;;;;;;5076077;28;20026;-80
2022/05/20 00:38:04;;;;;;;;;;;16.60;99.90;;;;;;5075509;28;20414;-80
2022/05/20 00:40:30;;;;;;;;;;;16.60;99.90;;;;;;5075692;28;19912;-80
2022/05/20 00:43:15;;;;;;;;;;;16.60;99.90;;;;;;5075452;28;19963;-81
2022/05/20 00:45:41;;;;;;;;;;;16.60;99.90;;;;;;5076282;28;19912;-81
2022/05/20 00:48:07;;;;;;;;;;;16.70;99.90;;;;;;5075413;28;19916;-81
2022/05/20 00:50:33;;;;;;;;;;;16.70;99.90;;;;;;5075946;28;19912;-81
2022/05/20 00:52:59;;;;;;;;;;;16.70;99.90;;;;;;5102299;28;19912;-81
2022/05/20 00:55:25;;;;;;;;;;;16.70;99.90;;;;;;5092379;28;20295;-81
2022/05/20 00:57:52;;;;;;;;;;;16.70;99.90;;;;;;5081353;28;19962;-81
2022/05/20 01:00:20;;;;;;;;;;;16.60;99.90;;;;;;5084723;28;19920;-81
2022/05/20 01:02:47;;;;;;;;;;;16.50;99.90;;;;;;5079151;28;19913;-81
2022/05/20 01:05:16;;;;;;;;;;;16.40;99.90;;;;;;5082946;28;20079;-81
2022/05/20 01:07:42;;;;;;;;;;;16.40;99.90;;;;;;5082718;28;19908;-81
2022/05/20 01:10:07;;;;;;;;;;;16.30;99.90;;;;;;5079710;28;19913;-81
2022/05/20 01:12:33;;;;;;;;;;;16.20;99.90;;;;;;5080773;28;19920;-81
2022/05/20 01:14:59;;;;;;;;;;;16.10;99.90;;;;;;5085995;28;19974;-81
2022/05/20 01:17:25;;;;;;;;;;;16.10;99.90;;;;;;5096508;28;19912;-81
2022/05/20 01:19:53;;;;;;;;;;;16.10;99.90;;;;;;5087798;28;20448;-81
2022/05/20 01:22:37;;;;;;;;;;;16.10;99.90;;;;;;5098436;28;19916;-81
2022/05/20 01:25:03;;;;;;;;;;;16.10;99.90;;;;;;5099142;28;20003;-81
2022/05/20 01:27:29;;;;;;;;;;;16.20;99.90;;;;;;5099291;28;19908;-81
2022/05/20 01:29:54;;;;;;;;;;;16.30;99.90;;;;;;5098938;28;20439;-81
2022/05/20 01:32:20;;;;;;;;;;;16.40;99.90;;;;;;5098687;28;19965;-82
2022/05/20 01:34:45;;;;;;;;;;;16.30;99.90;;;;;;5097532;28;20376;-82
2022/05/20 01:37:11;;;;;;;;;;;16.40;99.90;;;;;;5098704;28;19908;-82
2022/05/20 01:39:37;;;;;;;;;;;16.30;99.90;;;;;;5097205;28;19912;-81
2022/05/20 01:42:11;;;;;;;;;;;16.20;99.90;;;;;;5084043;28;19913;-82
2022/05/20 01:44:42;;;;;;;;;;;16.00;99.90;;;;;;5077072;28;19908;-81
2022/05/20 01:47:27;;;;;;;;;;;15.90;99.90;;;;;;5077247;28;20361;-81
2022/05/20 01:50:08;;;;;;;;;;;15.90;99.90;;;;;;5090422;28;19924;-81
2022/05/20 01:52:36;;;;;;;;;;;15.80;99.90;;;;;;5097044;28;19995;-81
2022/05/20 01:55:10;;;;;;;;;;;15.80;99.90;;;;;;5096654;28;19915;-82
2022/05/20 01:57:38;;;;;;;;;;;15.70;99.90;;;;;;5096620;28;19908;-81
2022/05/20 02:00:09;;;;;;;;;;;15.80;99.90;;;;;;5087133;28;20458;-81
2022/05/20 02:02:42;;;;;;;;;;;15.80;99.90;;;;;;5076486;28;19908;-81
2022/05/20 02:05:11;;;;;;;;;;;15.80;99.90;;;;;;5090664;28;20375;-82
2022/05/20 02:07:39;;;;;;;;;;;15.90;99.90;;;;;;5096407;28;19963;-82
2022/05/20 02:10:11;;;;;;;;;;;15.90;99.90;;;;;;5095689;28;19909;-82
2022/05/20 02:12:41;;;;;;;;;;;15.90;99.90;;;;;;5095986;28;19909;-82
2022/05/20 02:15:13;;;;;;;;;;;15.80;99.90;;;;;;5095453;28;19915;-82
2022/05/20 02:17:41;;;;;;;;;;;15.80;99.90;;;;;;5076047;28;19992;-81
2022/05/20 02:20:20;;;;;;;;;;;15.80;99.90;;;;;;5074709;28;20387;-81
2022/05/20 02:22:52;;;;;;;;;;;15.80;99.90;;;;;;5074238;28;20403;-81
2022/05/20 02:25:20;;;;;;;;;;;15.90;99.90;;;;;;5072437;28;19909;-81
2022/05/20 02:27:48;;;;;;;;;;;15.80;99.90;;;;;;5093861;28;19915;-82
2022/05/20 02:30:15;;;;;;;;;;;15.80;99.90;;;;;;5093638;28;19915;-81
2022/05/20 02:32:47;;;;;;;;;;;15.80;99.90;;;;;;5093732;28;19908;-81
2022/05/20 02:35:12;;;;;;;;;;;15.70;99.90;;;;;;5092751;28;19961;-81
2022/05/20 02:37:38;;;;;;;;;;;15.70;99.90;;;;;;5094597;28;19919;-82
2022/05/20 02:40:05;;;;;;;;;;;15.60;99.90;;;;;;5093563;28;19912;-81
2022/05/20 02:42:31;;;;;;;;;;;15.50;99.90;;;;;;5095440;28;19908;-81
2022/05/20 02:44:59;;;;;;;;;;;15.40;99.90;;;;;;5084296;28;20002;-80
2022/05/20 02:47:26;;;;;;;;;;;15.40;99.90;;;;;;5100281;28;19920;-80
2022/05/20 02:49:51;;;;;;;;;;;15.30;99.90;;;;;;5084982;28;19912;-80
2022/05/20 02:52:17;;;;;;;;;;;15.20;99.90;;;;;;5085556;28;19916;-81
2022/05/20 02:54:42;;;;;;;;;;;15.20;99.90;;;;;;5085826;28;19920;-80
2022/05/20 02:57:08;;;;;;;;;;;15.20;99.90;;;;;;5085654;28;19961;-81
2022/05/20 03:05:02;;;;;;;;;;;15.20;99.90;;;;;;5097903;28;19915;-81
2022/05/20 03:07:27;;;;;;;;;;;15.00;99.90;;;;;;5097378;28;19916;-81
2022/05/20 03:09:53;;;;;;;;;;;14.80;99.90;;;;;;5097559;28;19961;-81
2022/05/20 03:12:18;;;;;;;;;;;14.70;99.90;;;;;;5110162;28;19989;-81
2022/05/20 03:14:44;;;;;;;;;;;14.60;99.90;;;;;;5107267;28;20380;-81
2022/05/20 03:17:10;;;;;;;;;;;14.50;99.90;;;;;;5093012;28;20265;-81
2022/05/20 03:19:36;;;;;;;;;;;14.40;99.90;;;;;;5104010;28;19909;-81
2022/05/20 03:22:02;;;;;;;;;;;14.50;99.90;;;;;;5101320;28;19965;-81
2022/05/20 03:24:28;;;;;;;;;;;14.60;99.90;;;;;;5101142;28;19912;-81
2022/05/20 03:26:54;;;;;;;;;;;14.50;99.90;;;;;;5098586;28;19912;-81
2022/05/20 03:29:19;;;;;;;;;;;14.50;99.90;;;;;;5099666;28;19915;-81
2022/05/20 03:31:45;;;;;;;;;;;14.50;99.90;;;;;;5100693;28;19978;-80
2022/05/20 03:34:11;;;;;;;;;;;14.50;99.90;;;;;;5098202;28;19928;-80
2022/05/20 03:36:39;;;;;;;;;;;14.40;99.90;;;;;;5097785;28;19920;-80
2022/05/20 03:39:05;;;;;;;;;;;14.40;99.90;;;;;;5099544;28;20437;-81
2022/05/20 03:41:31;;;;;;;;;;;14.40;99.90;;;;;;5099574;28;19947;-81
2022/05/20 03:43:57;;;;;;;;;;;14.40;99.90;;;;;;5084294;28;19913;-81
2022/05/20 03:46:22;;;;;;;;;;;14.50;99.90;;;;;;5106062;28;19912;-80
2022/05/20 03:48:48;;;;;;;;;;;14.50;99.90;;;;;;5093918;28;19920;-80
2022/05/20 03:51:14;;;;;;;;;;;14.50;99.90;;;;;;5091913;28;19919;-81
2022/05/20 03:53:40;;;;;;;;;;;14.50;99.90;;;;;;5077554;28;19908;-80
2022/05/20 03:56:05;;;;;;;;;;;14.60;99.90;;;;;;5080095;28;19945;-79
2022/05/20 03:58:31;;;;;;;;;;;14.60;99.90;;;;;;5109792;28;19915;-80
2022/05/20 04:03:42;;;;;;;;;;;14.50;99.90;;;;;;5098348;28;19931;-80
2022/05/20 04:06:07;;;;;;;;;;;14.40;99.90;;;;;;5093054;28;20275;-80
2022/05/20 04:08:33;;;;;;;;;;;14.40;99.90;;;;;;5077467;28;19964;-80
2022/05/20 04:10:58;;;;;;;;;;;14.30;99.90;;;;;;5107264;28;20382;-80
2022/05/20 04:13:24;;;;;;;;;;;14.20;99.90;;;;;;5077803;28;19965;-79
2022/05/20 04:15:50;;;;;;;;;;;14.10;99.90;;;;;;5081773;28;19931;-80
2022/05/20 04:18:16;;;;;;;;;;;14.00;99.90;;;;;;5082293;28;19912;-80
2022/05/20 04:20:41;;;;;;;;;;;14.00;99.90;;;;;;5084397;28;20358;-80
2022/05/20 04:23:07;;;;;;;;;;;14.00;99.90;;;;;;5091678;28;20268;-80
2022/05/20 04:25:32;;;;;;;;;;;14.00;99.90;;;;;;5090403;28;20018;-80
2022/05/20 04:27:58;;;;;;;;;;;14.10;99.90;;;;;;5095684;28;19912;-81
2022/05/20 04:30:24;;;;;;;;;;;14.10;99.90;;;;;;5097543;28;19908;-81
2022/05/20 04:32:49;;;;;;;;;;;14.20;99.90;;;;;;5096364;28;19922;-81
2022/05/20 04:35:15;;;;;;;;;;;14.20;99.90;;;;;;5096630;28;19935;-81
2022/05/20 04:37:40;;;;;;;;;;;14.30;99.90;;;;;;5096880;28;19908;-81
2022/05/20 04:40:06;;;;;;;;;;;14.30;99.90;;;;;;5097019;28;19966;-81
2022/05/20 04:48:03;;;;;;;;;;;14.40;99.90;;;;;;5096520;28;20275;-81
2022/05/20 04:50:29;;;;;;;;;;;14.40;99.90;;;;;;5094884;28;19912;-81
2022/05/20 04:52:55;;;;;;;;;;;14.40;99.90;;;;;;5094671;28;20283;-81
2022/05/20 04:55:20;;;;;;;;;;;14.40;99.90;;;;;;5094774;28;19908;-81
2022/05/20 04:57:47;;;;;;;;;;;14.40;99.90;;;;;;5096115;28;20037;-81
2022/05/20 05:00:20;;;;;;;;;;;14.50;99.90;;;;;;5095489;28;20428;-81
2022/05/20 05:02:46;;;;;;;;;;;14.50;99.90;;;;;;5094039;28;20313;-80
2022/05/20 05:05:13;;;;;;;;;;;14.60;99.90;;;;;;5095197;28;19908;-80
2022/05/20 05:07:40;;;;;;;;;;;14.60;99.90;;;;;;5100111;28;19965;-80
2022/05/20 05:10:06;;;;;;;;;;;14.70;99.90;;;;;;5096860;28;19999;-81
2022/05/20 05:12:32;;;;;;;;;;;14.70;99.90;;;;;;5094965;28;19943;-81
2022/05/20 05:14:57;;;;;;;;;;;14.80;99.90;;;;;;5094122;28;20336;-81
2022/05/20 05:20:13;;;;;;;;;;;14.90;99.90;;;;;;5094932;28;19923;-81
2022/05/20 05:22:39;;;;;;;;;;;15.00;99.90;;;;;;5094596;28;19908;-81
2022/05/20 05:25:05;;;;;;;;;;;15.00;99.90;;;;;;5093027;28;19908;-81
2022/05/20 05:27:30;;;;;;;;;;;15.10;99.90;;;;;;5094513;28;20329;-81
2022/05/20 05:29:56;;;;;;;;;;;15.20;99.90;;;;;;5094639;28;20398;-80
2022/05/20 05:32:21;;;;;;;;;;;15.20;99.90;;;;;;5094277;28;19973;-81
2022/05/20 05:34:47;;;;;;;;;;;15.30;99.90;;;;;;5093651;28;19916;-80
2022/05/20 05:37:12;;;;;;;;;;;15.30;99.90;;;;;;5093380;28;19908;-80
2022/05/20 05:39:38;;;;;;;;;;;15.40;99.90;;;;;;5093305;28;19912;-81
2022/05/20 05:42:04;;;;;;;;;;;15.50;99.90;;;;;;5093424;28;19995;-81
2022/05/20 05:44:29;;;;;;;;;;;15.50;99.90;;;;;;5092058;28;19973;-81
2022/05/20 05:46:56;;;;;;;;;;;15.60;99.90;;;;;;5093500;28;19924;-80
2022/05/20 05:49:22;;;;;;;;;;;15.60;99.90;;;;;;5091909;28;20275;-81
2022/05/20 05:51:48;;;;;;;;;;;15.70;99.90;;;;;;5093056;28;19908;-81
2022/05/20 05:54:13;;;;;;;;;;;15.80;99.90;;;;;;5093503;28;19994;-81
2022/05/20 05:56:39;;;;;;;;;;;15.80;99.90;;;;;;5093693;28;19909;-80
2022/05/20 05:59:05;;;;;;;;;;;15.90;99.90;;;;;;5093047;28;20356;-80
2022/05/20 06:01:30;;;;;;;;;;;16.00;99.90;;;;;;5091703;28;19912;-80
2022/05/20 06:03:56;;;;;;;;;;;16.10;99.90;;;;;;5093133;28;20406;-81
2022/05/20 06:06:21;;;;;;;;;;;16.10;99.90;;;;;;5093038;28;20283;-81
2022/05/20 06:08:47;;;;;;;;;;;16.20;99.90;;;;;;5091952;28;19915;-81
2022/05/20 06:11:13;;;;;;;;;;;16.30;99.90;;;;;;5093106;28;19908;-81
2022/05/20 06:13:39;;;;;;;;;;;16.40;99.90;;;;;;5092967;28;19918;-81
2022/05/20 06:16:05;;;;;;;;;;;16.40;99.90;;;;;;5093067;28;19908;-81
2022/05/20 06:18:30;;;;;;;;;;;16.50;99.90;;;;;;5093638;28;19962;-81
2022/05/20 06:20:56;;;;;;;;;;;16.60;99.90;;;;;;5094108;28;19957;-81
2022/05/20 06:23:22;;;;;;;;;;;16.70;99.90;;;;;;5096612;28;19916;-80
2022/05/20 06:25:48;;;;;;;;;;;16.70;99.90;;;;;;5096768;28;19912;-81
2022/05/20 06:28:15;;;;;;;;;;;16.80;99.90;;;;;;5095274;28;19908;-81
2022/05/20 06:30:41;;;;;;;;;;;16.90;99.90;;;;;;5095032;28;19915;-80
2022/05/20 06:33:07;;;;;;;;;;;16.90;99.90;;;;;;5055357;28;1159165;-81
2022/05/20 06:41:02;;;;;;;;;;;17.10;99.90;;;;;;5097490;28;20064;-81
2022/05/20 06:43:28;;;;;;;;;;;17.20;99.90;;;;;;5097626;28;19977;-81
2022/05/20 06:45:56;;;;;;;;;;;17.30;99.90;;;;;;5110334;23;19924;-73
2022/05/20 06:48:22;;;;;;;;;;;17.40;99.90;;;;;;5097014;28;19916;-72
2022/05/20 06:50:48;;;;;;;;;;;17.50;99.90;;;;;;5097297;28;20016;-72
2022/05/20 06:53:14;;;;;;;;;;;17.50;99.90;;;;;;5078774;28;19908;-72
2022/05/20 06:55:40;;;;;;;;;;;17.50;99.90;;;;;;5097132;28;19912;-72
2022/05/20 06:58:05;;;;;;;;;;;17.50;99.90;;;;;;5097071;28;19908;-72
2022/05/20 07:00:31;;;;;;;;;;;17.60;99.90;;;;;;5096988;28;19916;-72
2022/05/20 07:02:56;;;;;;;;;;;17.70;99.90;;;;;;5096756;28;19994;-73
2022/05/20 07:05:22;;;;;;;;;;;17.80;99.90;;;;;;5096694;28;19967;-73
2022/05/20 07:07:48;;;;;;;;;;;17.90;99.90;;;;;;5096603;28;20380;-72
2022/05/20 07:10:14;;;;;;;;;;;18.00;99.90;;;;;;5096869;28;19954;-73
2022/05/20 07:12:40;;;;;;;;;;;18.10;99.90;;;;;;5096848;28;19915;-72
2022/05/20 07:15:05;;;;;;;;;;;18.20;99.90;;;;;;5096796;28;19908;-73
2022/05/20 07:17:31;;;;;;;;;;;18.30;99.90;;;;;;5096393;28;19915;-72
2022/05/20 07:19:57;;;;;;;;;;;18.40;99.90;;;;;;5096348;28;19999;-73
2022/05/20 07:22:23;;;;;;;;;;;18.60;99.90;;;;;;5096438;28;19954;-73
2022/05/20 07:24:49;;;;;;;;;;;18.70;99.90;;;;;;5096398;28;19916;-72
2022/05/20 07:27:15;;;;;;;;;;;18.90;99.90;;;;;;5078132;28;19908;-72
2022/05/20 07:29:40;;;;;;;;;;;19.00;99.90;;;;;;5096841;28;20351;-73
2022/05/20 07:32:06;;;;;;;;;;;19.10;99.90;;;;;;5094906;28;19908;-73
2022/05/20 07:34:32;;;;;;;;;;;19.30;99.90;;;;;;5096251;28;19916;-73
2022/05/20 07:36:57;;;;;;;;;;;19.40;99.90;;;;;;5096334;28;19915;-73
2022/05/20 07:39:23;;;;;;;;;;;19.50;99.90;;;;;;5096363;28;19916;-73
2022/05/20 07:41:49;;;;;;;;;;;19.70;99.90;;;;;;5096524;28;19933;-72
2022/05/20 07:44:14;;;;;;;;;;;19.80;99.90;;;;;;5096004;28;19944;-73
2022/05/20 07:46:40;;;;;;;;;;;20.00;99.90;;;;;;5095800;28;19981;-72
2022/05/20 07:49:06;;;;;;;;;;;20.10;99.90;;;;;;5095926;28;20431;-72
2022/05/20 07:51:32;;;;;;;;;;;20.20;99.90;;;;;;5077692;28;20049;-73
2022/05/20 07:54:00;;;;;;;;;;;20.20;99.90;;;;;;5095834;28;19908;-73
2022/05/20 07:56:37;;;;;;;;;;;20.30;99.90;;;;;;5095740;28;19931;-73
2022/05/20 07:59:12;;;;;;;;;;;20.40;99.90;;;;;;5095709;28;20329;-73
2022/05/20 08:01:41;;;;;;;;;;;20.50;99.90;;;;;;5095560;28;19916;-72
2022/05/20 08:06:55;;;;;;;;;;;20.60;99.90;;;;;;5096079;28;20295;-72
2022/05/20 08:09:21;;;;;;;;;;;20.70;99.90;;;;;;5095805;28;19983;-73
2022/05/20 08:11:46;;;;;;;;;;;20.80;99.90;;;;;;5095493;28;19915;-72
2022/05/20 08:14:12;;;;;;;;;;;21.00;99.90;;;;;;5095397;28;19931;-73
2022/05/20 08:16:38;;;;;;;;;;;21.10;99.90;;;;;;5095265;28;19912;-72
2022/05/20 08:19:03;;;;;;;;;;;21.10;99.90;;;;;;5095232;28;19915;-73
2022/05/20 08:21:29;;;;;;;;;;;21.10;99.80;;;;;;5095160;28;20367;-73
2022/05/20 08:23:55;;;;;;;;;;;21.20;99.90;;;;;;5095554;28;19915;-73
2022/05/20 08:26:20;;;;;;;;;;;21.30;99.90;;;;;;5095287;28;19933;-72
2022/05/20 08:28:46;;;;;;;;;;;21.30;99.90;;;;;;5095176;28;20421;-73
2022/05/20 08:31:12;;;;;;;;;;;21.40;99.90;;;;;;5077302;28;19915;-72
2022/05/20 08:33:37;;;;;;;;;;;21.40;99.80;;;;;;5095624;28;20366;-72
2022/05/20 08:36:03;;;;;;;;;;;21.60;99.30;;;;;;5095256;28;19908;-72
2022/05/20 08:38:29;;;;;;;;;;;21.60;98.80;;;;;;5094849;28;19954;-73
2022/05/20 08:40:57;;;;;;;;;;;21.70;98.60;;;;;;5094842;28;20394;-72
2022/05/20 08:43:24;;;;;;;;;;;21.90;99.10;;;;;;5094423;28;20287;-73
2022/05/20 08:45:50;;;;;;;;;;;22.00;98.50;;;;;;5094713;28;19919;-73
2022/05/20 08:48:16;;;;;;;;;;;22.10;99.50;;;;;;5094683;28;19908;-72
2022/05/20 08:50:44;;;;;;;;;;;22.20;98.70;;;;;;5095016;28;19987;-72
2022/05/20 08:53:17;;;;;;;;;;;22.30;98.50;;;;;;5094676;28;19915;-73
2022/05/20 08:55:42;;;;;;;;;;;22.30;97.90;;;;;;5094613;28;20386;-72
2022/05/20 08:58:09;;;;;;;;;;;22.50;99.10;;;;;;5076616;28;19912;-72
2022/05/20 09:00:35;;;;;;;;;;;22.60;99.40;;;;;;5094540;28;19918;-72
2022/05/20 09:03:06;;;;;;;;;;;22.80;99.00;;;;;;5094911;28;20416;-72
2022/05/20 09:05:36;;;;;;;;;;;22.90;98.40;;;;;;5094826;28;19958;-72
2022/05/20 09:08:04;;;;;;;;;;;23.10;97.90;;;;;;5094394;28;19951;-72
2022/05/20 09:10:42;;;;;;;;;;;23.20;98.00;;;;;;5094280;28;19922;-72
2022/05/20 09:13:12;;;;;;;;;;;23.40;98.20;;;;;;5094194;28;19912;-72
2022/05/20 09:15:43;;;;;;;;;;;23.40;98.40;;;;;;5094235;28;19909;-72
2022/05/20 09:18:11;;;;;;;;;;;23.50;95.70;;;;;;5094253;28;20380;-72
2022/05/20 09:20:47;;;;;;;;;;;23.60;96.60;;;;;;5094105;28;19919;-72
2022/05/20 09:23:15;;;;;;;;;;;23.70;96.80;;;;;;5095064;28;19908;-72
2022/05/20 09:26:06;;;;;;;;;;;23.80;95.40;;;;;;5094687;28;20392;-72
2022/05/20 09:28:35;;;;;;;;;;;23.90;94.80;;;;;;5104890;28;19961;-72
2022/05/20 09:31:27;;;;;;;;;;;24.00;94.20;;;;;;5094021;28;19912;-72
2022/05/20 09:34:12;;;;;;;;;;;24.00;93.70;;;;;;5071408;28;19961;-71
2022/05/20 09:36:43;;;;;;;;;;;24.20;94.10;;;;;;5094470;28;20331;-72
2022/05/20 09:39:10;;;;;;;;;;;24.30;93.40;;;;;;5094472;28;19954;-72
2022/05/20 09:41:43;;;;;;;;;;;24.40;92.20;;;;;;5094130;28;19912;-72
2022/05/20 09:44:10;;;;;;;;;;;24.50;92.50;;;;;;5093999;28;19916;-71
2022/05/20 09:46:42;;;;;;;;;;;24.60;92.60;;;;;;5093898;28;20010;-71
2022/05/20 09:49:16;;;;;;;;;;;24.70;90.60;;;;;;5094358;28;19916;-71
2022/05/20 09:51:48;;;;;;;;;;;24.90;90.50;;;;;;5094191;28;19908;-71
2022/05/20 09:54:20;;;;;;;;;;;25.00;89.70;;;;;;5075720;28;20371;-71
2022/05/20 09:56:56;;;;;;;;;;;25.00;89.20;;;;;;5097675;28;19908;-71
2022/05/20 09:59:27;;;;;;;;;;;25.00;88.00;;;;;;5098306;28;19912;-71
2022/05/20 10:02:02;;;;;;;;;;;25.00;86.20;;;;;;5097842;28;19997;-71
2022/05/20 10:04:34;;;;;;;;;;;25.00;86.50;;;;;;5080331;28;19912;-71
2022/05/20 10:07:01;;;;;;;;;;;25.10;89.00;;;;;;5098118;28;20398;-71
2022/05/20 10:09:45;;;;;;;;;;;25.20;87.70;;;;;;5097804;28;20363;-70
2022/05/20 10:12:31;;;;;;;;;;;25.40;85.50;;;;;;5097973;28;19916;-70
2022/05/20 10:15:02;;;;;;;;;;;25.50;87.60;;;;;;5097730;28;20431;-70
2022/05/20 10:17:49;;;;;;;3.65;2.00;;;25.60;89.00;;;;;;5097227;28;20076;-70
2022/05/20 10:20:22;;;;;;;;;;;25.70;87.30;;;;;;5097671;28;20131;-70
2022/05/20 10:23:06;;;;;;;;;;;25.80;85.40;;;;;;5097567;28;19904;-70
2022/05/20 10:25:46;;;;;;;;;;;26.00;85.40;;;;;;5097492;28;19904;-70
2022/05/20 10:28:12;;;;;;;;;;;26.00;86.30;;;;;;5078944;28;19954;-70
2022/05/20 10:33:31;;;;;;;;;;;26.20;79.80;;;;;;5097967;28;19918;-69
2022/05/20 10:35:59;;;;;;;;;;;26.30;78.10;;;;;;5097205;28;19911;-70
2022/05/20 10:38:25;;;;;;;;;;;26.40;77.40;;;;;;5097011;28;19911;-70
2022/05/20 10:41:04;;;;;;;;;;;26.50;81.60;;;;;;5097051;28;20037;-70
2022/05/20 10:49:20;;;;;;;;;;;26.80;77.90;;;;;;5097160;28;19958;-70
2022/05/20 10:51:56;;;;;;;;;;;26.90;78.50;;;;;;5097422;28;20344;-70
2022/05/20 10:54:41;;;;;;;;;;;26.90;75.60;;;;;;5097283;28;19942;-70
2022/05/20 10:57:17;;;;;;;;;;;27.00;72.50;;;;;;5096859;28;19904;-70
2022/05/20 10:59:52;;;;;;;;;;;27.00;74.60;;;;;;5096882;28;19990;-70
2022/05/20 11:02:33;;;;;;;;;;;27.10;73.30;;;;;;5096680;28;19915;-70
2022/05/20 11:05:17;;;;;;;;;;;27.30;73.70;;;;;;5096718;28;19914;-71
2022/05/20 11:07:42;;;;;;;;;;;27.40;74.80;;;;;;5096293;28;19907;-73
2022/05/20 11:10:16;;;;;;;;;;;27.60;72.60;;;;;;5095626;28;19915;-73
2022/05/20 11:12:45;;;;;;;;;;;27.70;72.00;;;;;;5076225;28;19908;-73
2022/05/20 11:15:29;;;;;;;;;;;27.90;71.00;;;;;;5095779;28;19904;-73
2022/05/20 11:17:57;;;;;;;;;;;28.00;75.70;;;;;;5096002;28;20005;-73
2022/05/20 11:20:41;;;;;;;;;;;28.20;70.60;;;;;;5096143;28;20041;-72
2022/05/20 11:23:09;;;;;;;;;;;28.30;69.80;;;;;;5096259;28;20390;-73
2022/05/20 11:25:35;;;;;;;;;;;28.50;66.70;;;;;;5096603;28;20414;-73
2022/05/20 11:28:14;;;;;;;;;;;28.50;67.10;;;;;;5095884;28;20034;-73
2022/05/20 11:30:45;;;;;;;;;;;28.70;66.30;;;;;;5096224;28;20038;-73
2022/05/20 11:33:14;;;;;;;;;;;28.80;65.20;;;;;;5095848;28;20042;-73
2022/05/20 11:35:58;;;;;;;;;;;28.90;62.70;;;;;;5096124;28;20049;-73
2022/05/20 11:38:26;;;;;;;;;;;29.00;62.60;;;;;;5095671;28;20024;-72
2022/05/20 11:41:00;;;;;;;4.50;2.10;;;29.10;64.00;;;;;;5095720;28;20027;-73
2022/05/20 11:43:47;;;;;;;3.60;1.90;;;29.20;61.70;;;;;;5077602;28;20039;-73
2022/05/20 11:46:32;;;;;;;4.30;2.50;;;29.30;60.60;;;;;;5095564;28;19933;-73
2022/05/20 11:49:09;;;;;;;5.15;2.25;;;29.40;62.40;;;;;;5095912;28;20052;-73
2022/05/20 11:52:00;;;;;;;3.70;2.00;;;29.60;59.00;;;;;;5077411;28;20064;-73
2022/05/20 11:54:43;;;;;;;4.40;1.88;;;29.70;61.10;;;;;;5095534;28;20024;-73
2022/05/20 11:57:17;;;;;;;5.80;2.00;;;29.70;59.20;;;;;;5095640;28;20417;-73
2022/05/20 11:59:54;;;;;;;3.58;2.00;;;29.60;54.30;;;;;;5095413;28;19988;-73
2022/05/20 12:02:21;;;;;;;5.18;2.08;;;29.50;56.90;;;;;;5095267;28;20089;-72
2022/05/20 12:04:48;;;;;;;4.35;2.15;;;29.60;57.60;;;;;;5077081;28;20028;-73
2022/05/20 12:07:17;;;;;;;2.95;1.92;;;29.70;56.40;;;;;;5095055;28;20148;-72
2022/05/20 12:09:52;;;;;;;4.53;2.20;;;29.70;54.70;;;;;;5095357;28;20020;-73
2022/05/20 12:12:27;;;;;;;3.80;1.95;;;29.80;56.70;;;;;;5095361;28;20066;-73
2022/05/20 12:15:36;;;;;;;2.50;1.58;;;29.90;53.10;;;;;;5094978;28;20055;-72
2022/05/20 12:24:33;;;;;;;3.20;2.00;;;29.70;51.50;;;;;;5115850;28;20072;-73
2022/05/20 12:26:59;;;;;;;2.42;1.45;;;29.90;54.40;;;;;;5096880;28;20068;-72
2022/05/20 12:29:39;;;;;;;4.35;1.85;;;30.20;54.30;;;;;;5115152;28;20475;-72
2022/05/20 12:32:17;;;;;;;;;;;30.40;54.40;;;;;;5115633;28;20102;-73
2022/05/20 12:35:04;;;;;;;4.90;2.05;;;30.60;54.50;;;;;;5115738;28;19904;-73
2022/05/20 12:37:42;;;;;;;5.13;2.00;;;30.60;52.90;;;;;;5115377;28;20070;-72
2022/05/20 12:40:20;;;;;;;3.40;1.60;;;30.80;54.20;;;;;;5114908;28;20023;-72
2022/05/20 12:43:07;;;;;;;4.75;1.67;;;30.90;54.00;;;;;;5094327;28;20024;-72
2022/05/20 12:45:55;;;;;;;2.65;1.70;;;31.10;53.30;;;;;;5094667;28;20341;-72
2022/05/20 12:48:30;;;;;;;2.80;1.83;;;31.20;52.20;;;;;;5094613;28;20063;-73
2022/05/20 12:51:04;;;;;;;4.50;1.90;;;31.20;51.40;;;;;;5094905;28;20027;-72
2022/05/20 12:53:33;;;;;;;3.85;1.70;;;31.10;52.60;;;;;;5094740;28;20024;-72
2022/05/20 12:56:00;;;;;;;5.53;2.10;;;31.20;54.90;;;;;;5094428;28;20028;-72
2022/05/20 12:58:30;;;;;;;2.90;1.70;;;31.30;50.00;;;;;;5094715;28;20017;-72
2022/05/20 13:00:59;;;;;;;6.30;2.10;;;31.30;51.10;;;;;;5094683;28;20027;-72
2022/05/20 13:03:32;;;;;;;3.45;1.77;;;31.40;51.90;;;;;;5094330;28;20031;-72
2022/05/20 13:06:18;;;;;;;2.75;1.80;;;31.40;51.80;;;;;;5094144;28;20023;-72
2022/05/20 13:09:02;;;;;;;3.38;1.65;;;31.50;50.70;;;;;;5075923;28;20027;-72
2022/05/20 13:11:50;;;;;;;6.10;1.75;;;31.40;49.00;;;;;;5094335;28;20475;-72
2022/05/20 13:14:19;;;;;;;4.28;1.88;;;31.30;52.00;;;;;;5094220;28;20085;-72
2022/05/20 13:16:53;;;;;;;3.28;1.63;;;31.20;50.70;;;;;;5094452;28;20543;-72
2022/05/20 13:19:28;;;;;;;5.72;1.90;;;31.30;50.10;;;;;;5094117;28;20032;-72
2022/05/20 13:22:00;;;;;;;6.15;1.73;;;31.50;50.70;;;;;;5094139;28;20345;-72
2022/05/20 13:24:29;;;;;;;2.70;1.85;;;31.60;48.60;;;;;;5094409;28;20016;-72
2022/05/20 13:27:06;;;;;;;2.67;1.70;;;31.60;48.50;;;;;;5093728;28;20477;-71
2022/05/20 13:29:32;;;;;;;3.20;1.60;;;31.60;50.40;;;;;;5093940;28;20467;-71
2022/05/20 13:32:31;;;;;;;3.92;2.15;;;31.60;49.40;;;;;;5093573;28;20081;-72
2022/05/20 13:34:59;;;;;;;3.97;1.73;;;31.70;48.80;;;;;;5049575;28;20032;-72
2022/05/20 13:37:48;;;;;;;3.50;1.75;;;31.70;49.00;;;;;;5094037;28;20024;-72
2022/05/20 13:40:18;;;;;;;2.67;1.43;;;31.80;52.20;;;;;;5093607;28;20020;-73
2022/05/20 13:42:52;;;;;;;4.77;2.00;;;31.80;49.60;;;;;;5093585;28;20048;-71
2022/05/20 13:45:21;;;;;;;2.88;1.67;;;31.90;50.10;;;;;;5093843;28;20337;-73
2022/05/20 13:50:32;;;;;;;6.63;1.67;;;32.00;50.00;;;;;;5093882;28;20035;-72
2022/05/20 13:52:59;;;;;;;6.95;2.22;;;31.80;50.50;;;;;;5093481;28;20111;-72
2022/05/20 13:55:34;;;;;;;3.67;2.00;;;31.60;51.10;;;;;;5093309;28;20484;-72
2022/05/20 13:58:00;;;;;;;3.47;1.60;;;31.40;50.30;;;;;;5093344;28;20024;-72
2022/05/20 14:00:33;;;;;;;3.53;1.83;;;31.20;50.00;;;;;;5074908;28;20020;-72
2022/05/20 14:03:13;;;;;;;2.35;1.52;;;31.10;50.40;;;;;;5092467;28;20016;-72
2022/05/20 14:06:04;;;;;;;4.17;1.70;;;31.00;51.30;;;;;;5092530;28;20028;-72
2022/05/20 14:08:31;;;;;;;3.97;1.67;;;30.80;48.10;;;;;;5083781;28;20499;-72
2022/05/20 14:11:03;;;;;;;3.67;1.70;;;30.60;51.00;;;;;;5093254;28;20047;-72
2022/05/20 14:13:36;;;;;;;5.13;1.73;;;30.30;51.50;;;;;;5093712;28;20024;-72
2022/05/20 14:16:10;;;;;;;5.75;1.85;;;30.10;53.50;;;;;;5093571;28;20613;-72
2022/05/20 14:18:42;;;;;;;3.65;1.88;;;29.90;56.40;;;;;;5093183;28;20039;-72
2022/05/20 14:21:25;;;;;;;3.28;1.92;;;29.80;52.50;;;;;;5093710;28;20029;-71
2022/05/20 14:23:59;;;;;;;4.60;2.10;;;29.90;56.30;;;;;;5093460;28;20074;-71
2022/05/20 14:26:28;;;;;;;4.50;2.00;;;30.00;54.00;;;;;;5093436;28;20028;-72
2022/05/20 14:28:59;;;;;;;3.88;1.90;;;30.20;53.60;;;;;;5093026;28;20393;-71
2022/05/20 14:31:30;;;;;;;3.45;1.67;;;30.20;53.40;;;;;;5093163;28;20043;-71
2022/05/20 14:34:04;;;;;;;2.22;1.52;;;30.40;51.60;;;;;;5093122;28;20044;-71
2022/05/20 14:36:30;;;;;;;3.08;1.90;;;30.50;49.00;;;;;;5093086;28;20391;-72
2022/05/20 14:38:58;;;;;;;3.38;1.90;;;30.60;52.70;;;;;;5093459;28;20111;-71
2022/05/20 14:41:25;;;;;;;3.47;1.80;;;30.90;56.80;;;;;;5094243;28;20113;-71
2022/05/20 14:43:55;;;;;;;3.72;1.88;;;31.00;54.90;;;;;;5096728;28;20471;-71
2022/05/20 14:49:33;;;;;;;5.82;1.80;;;31.30;53.10;;;;;;5096980;28;20392;-71
2022/05/20 14:51:59;;;;;;;6.75;2.30;;;31.50;52.90;;;;;;5096674;28;20059;-71
2022/05/20 14:54:34;;;;;;;5.13;2.00;;;31.70;51.20;;;;;;5096653;28;20028;-72
2022/05/20 14:57:18;;;;;;;5.32;1.90;;;31.80;50.60;;;;;;5096512;28;20095;-72